createdAt,value
2022-08-14T00:02:19.074Z,17.48
2022-08-14T00:04:47.678Z,16.05
2022-08-14T00:07:16.346Z,18.85
2022-08-14T00:10:02.518Z,12.23
2022-08-14T00:12:39.128Z,15.63
2022-08-14T00:15:21.936Z,13.00
2022-08-14T00:17:53.629Z,17.05
2022-08-14T00:20:35.842Z,11.93
2022-08-14T00:23:16.641Z,14.70
2022-08-14T00:25:54.095Z,15.85
2022-08-14T00:28:36.917Z,13.68
2022-08-14T00:31:09.600Z,15.73
2022-08-14T00:33:51.468Z,12.75
2022-08-14T00:36:36.387Z,9.35
2022-08-14T00:39:17.969Z,11.02
2022-08-14T00:41:47.541Z,14.93
2022-08-14T00:44:26.676Z,14.07
2022-08-14T00:47:03.862Z,10.90
2022-08-14T00:49:37.847Z,13.32
2022-08-14T00:52:14.236Z,10.80
2022-08-14T00:54:53.082Z,19.63
2022-08-14T00:57:28.427Z,15.27
2022-08-14T00:59:58.477Z,14.95
2022-08-14T01:02:31.948Z,15.00
2022-08-14T01:05:02.915Z,12.50
2022-08-14T01:07:38.589Z,15.85
2022-08-14T01:10:16.891Z,11.35
2022-08-14T01:12:47.897Z,13.10
2022-08-14T01:15:31.775Z,15.93
2022-08-14T01:18:29.343Z,19.48
2022-08-14T01:21:07.198Z,14.93
2022-08-14T01:23:46.690Z,20.15
2022-08-14T01:26:23.527Z,13.27
2022-08-14T01:29:06.872Z,12.68
2022-08-14T01:31:42.687Z,19.15
2022-08-14T01:35:19.978Z,14.48
2022-08-14T01:37:03.105Z,17.75
2022-08-14T01:39:38.205Z,16.88
2022-08-14T01:42:07.124Z,12.65
2022-08-14T01:44:41.316Z,17.02
2022-08-14T01:47:21.840Z,15.25
2022-08-14T01:49:59.745Z,12.80
2022-08-14T01:52:58.760Z,14.02
2022-08-14T01:55:30.740Z,14.18
2022-08-14T01:58:18.107Z,15.13
2022-08-14T02:00:48.412Z,16.58
2022-08-14T02:03:17.966Z,14.52
2022-08-14T02:05:47.085Z,12.35
2022-08-14T02:08:16.031Z,11.50
2022-08-14T02:11:16.053Z,10.32
2022-08-14T02:13:50.558Z,14.98
2022-08-14T02:16:26.249Z,15.98
2022-08-14T02:18:56.858Z,16.13
2022-08-14T02:21:27.807Z,67.90
2022-08-14T02:23:57.533Z,13.30
2022-08-14T02:26:30.968Z,18.25
2022-08-14T02:29:03.449Z,13.20
2022-08-14T02:31:43.226Z,16.17
2022-08-14T02:34:22.162Z,15.27
2022-08-14T02:37:03.741Z,14.93
2022-08-14T02:39:37.673Z,13.70
2022-08-14T02:42:13.114Z,16.75
2022-08-14T02:44:49.418Z,15.23
2022-08-14T02:47:20.952Z,13.90
2022-08-14T02:49:54.799Z,14.60
2022-08-14T02:52:57.460Z,22.80
2022-08-14T02:55:20.099Z,14.02
2022-08-14T02:58:03.209Z,14.13
2022-08-14T03:00:39.689Z,16.40
2022-08-14T03:03:09.143Z,14.10
2022-08-14T03:05:41.136Z,16.38
2022-08-14T03:08:16.015Z,13.80
2022-08-14T03:10:49.242Z,13.43
2022-08-14T03:13:21.603Z,14.02
2022-08-14T03:15:56.085Z,13.50
2022-08-14T03:18:30.904Z,21.30
2022-08-14T03:21:02.557Z,19.00
2022-08-14T03:23:37.858Z,10.18
2022-08-14T03:26:13.135Z,11.13
2022-08-14T03:28:51.290Z,10.82
2022-08-14T03:31:26.019Z,14.30
2022-08-14T03:34:00.137Z,21.73
2022-08-14T03:37:37.816Z,15.05
2022-08-14T03:39:24.177Z,15.27
2022-08-14T03:41:59.807Z,13.10
2022-08-14T03:45:19.717Z,14.13
2022-08-14T03:47:21.044Z,13.52
2022-08-14T03:49:50.415Z,15.15
2022-08-14T03:52:55.573Z,175.90
2022-08-14T03:55:12.464Z,11.43
2022-08-14T03:57:41.539Z,12.38
2022-08-14T04:00:42.730Z,253.77
2022-08-14T04:03:04.880Z,8.32
2022-08-14T04:05:38.110Z,16.92
2022-08-14T04:08:29.293Z,12.07
2022-08-14T04:11:01.238Z,13.57
2022-08-14T04:13:31.862Z,15.45
2022-08-14T04:16:12.350Z,263.75
2022-08-14T04:18:42.483Z,240.02
2022-08-14T04:21:12.077Z,206.25
2022-08-14T04:23:40.918Z,156.43
2022-08-14T04:26:14.983Z,140.75
2022-08-14T04:29:08.054Z,147.52
2022-08-14T04:33:10.596Z,156.00
2022-08-14T04:34:33.979Z,111.03
2022-08-14T04:37:24.713Z,138.00
2022-08-14T04:40:13.218Z,126.95
2022-08-14T04:43:01.525Z,141.70
2022-08-14T04:45:37.431Z,194.02
2022-08-14T04:48:36.614Z,178.95
2022-08-14T04:51:06.765Z,169.98
2022-08-14T04:53:40.871Z,204.82
2022-08-14T04:56:31.099Z,210.25
2022-08-14T04:59:10.360Z,187.75
2022-08-14T05:01:48.714Z,196.65
2022-08-14T05:04:21.814Z,181.90
2022-08-14T05:06:54.275Z,172.77
2022-08-14T05:09:29.152Z,258.50
2022-08-14T05:13:10.701Z,199.65
2022-08-14T05:14:54.877Z,14.15
2022-08-14T05:17:32.116Z,15.32
2022-08-14T05:21:55.311Z,16.15
2022-08-14T05:23:03.687Z,18.63
2022-08-14T05:25:34.266Z,21.17
2022-08-14T05:28:12.526Z,23.23
2022-08-14T05:30:46.489Z,14.80
2022-08-14T05:33:16.378Z,14.77
2022-08-14T05:35:46.811Z,14.15
2022-08-14T05:38:31.330Z,14.65
2022-08-14T05:41:01.554Z,13.95
2022-08-14T05:43:40.994Z,16.05
2022-08-14T05:46:15.130Z,12.48
2022-08-14T05:48:44.171Z,12.32
2022-08-14T05:51:15.457Z,12.85
2022-08-14T05:53:59.984Z,16.38
2022-08-14T05:56:33.094Z,17.60
2022-08-14T05:59:07.386Z,21.00
2022-08-14T06:01:36.356Z,14.43
2022-08-14T06:04:05.464Z,10.27
2022-08-14T06:06:38.650Z,14.55
2022-08-14T06:09:09.907Z,15.23
2022-08-14T06:11:39.096Z,13.60
2022-08-14T06:14:20.606Z,12.70
2022-08-14T06:16:52.947Z,10.50
2022-08-14T06:19:23.248Z,239.80
2022-08-14T06:21:59.325Z,348.73
2022-08-14T06:24:30.777Z,11.35
2022-08-14T06:27:06.165Z,11.43
2022-08-14T06:29:38.764Z,18.35
2022-08-14T06:32:37.328Z,14.70
2022-08-14T06:35:02.140Z,15.25
2022-08-14T06:37:43.951Z,13.57
2022-08-14T06:40:25.715Z,13.00
2022-08-14T06:43:00.045Z,373.85
2022-08-14T06:45:29.587Z,13.77
2022-08-14T06:47:58.766Z,15.05
2022-08-14T06:50:30.204Z,12.40
2022-08-14T06:53:00.550Z,13.45
2022-08-14T06:55:29.422Z,15.95
2022-08-14T06:57:58.484Z,13.48
2022-08-14T07:00:31.087Z,10.57
2022-08-14T07:03:17.617Z,11.63
2022-08-14T07:05:55.529Z,10.43
2022-08-14T07:08:32.076Z,15.55
2022-08-14T07:11:04.132Z,15.88
2022-08-14T07:13:32.934Z,16.08
2022-08-14T07:16:05.501Z,13.18
2022-08-14T07:18:36.420Z,13.63
2022-08-14T07:21:07.313Z,10.05
2022-08-14T07:23:40.183Z,12.90
2022-08-14T07:26:13.705Z,15.35
2022-08-14T07:28:44.101Z,14.43
2022-08-14T07:31:13.875Z,16.33
2022-08-14T07:33:50.138Z,14.23
2022-08-14T07:36:27.480Z,18.40
2022-08-14T07:39:03.085Z,19.90
2022-08-14T07:41:42.409Z,14.02
2022-08-14T07:44:29.348Z,13.95
2022-08-14T07:47:00.881Z,16.52
2022-08-14T07:49:30.148Z,18.35
2022-08-14T07:52:00.167Z,13.68
2022-08-14T07:54:31.786Z,15.63
2022-08-14T07:57:06.263Z,14.88
2022-08-14T07:59:44.505Z,12.45
2022-08-14T08:02:20.368Z,11.20
2022-08-14T08:04:53.084Z,9.35
2022-08-14T08:07:23.957Z,9.60
2022-08-14T08:09:57.250Z,10.32
2022-08-14T08:12:31.129Z,12.80
2022-08-14T08:15:03.176Z,8.43
2022-08-14T08:17:42.766Z,9.27
2022-08-14T08:20:27.216Z,12.40
2022-08-14T08:23:00.636Z,9.63
2022-08-14T08:25:39.838Z,12.35
2022-08-14T08:28:25.113Z,14.45
2022-08-14T08:30:56.783Z,5.40
2022-08-14T08:33:32.093Z,7.28
2022-08-14T08:36:12.467Z,5.97
2022-08-14T08:39:17.303Z,5.00
2022-08-14T08:41:43.345Z,6.80
2022-08-14T08:44:31.146Z,3.33
2022-08-14T08:47:05.783Z,7.78
2022-08-14T08:49:43.207Z,4.00
2022-08-14T08:52:25.404Z,5.40
2022-08-14T08:55:01.116Z,4.55
2022-08-14T08:57:38.065Z,7.72
2022-08-14T09:00:24.195Z,7.20
2022-08-14T09:02:57.693Z,4.20
2022-08-14T09:05:27.492Z,6.10
2022-08-14T09:07:56.920Z,5.47
2022-08-14T09:10:27.072Z,7.05
2022-08-14T09:12:57.910Z,5.25
2022-08-14T09:15:42.560Z,3.83
2022-08-14T09:18:12.627Z,4.65
2022-08-14T09:20:51.352Z,6.05
2022-08-14T09:23:27.402Z,3.55
2022-08-14T09:26:05.103Z,4.63
2022-08-14T09:28:51.463Z,4.82
2022-08-14T09:31:21.507Z,7.05
2022-08-14T09:34:09.188Z,4.13
2022-08-14T09:37:05.101Z,8.43
2022-08-14T09:39:47.988Z,7.75
2022-08-14T09:42:33.218Z,6.38
2022-08-14T09:45:15.458Z,5.38
2022-08-14T09:47:49.080Z,4.40
2022-08-14T09:50:28.009Z,4.50
2022-08-14T09:52:59.621Z,3.25
2022-08-14T09:55:41.686Z,3.00
2022-08-14T09:58:20.080Z,4.50
2022-08-14T10:00:55.071Z,4.63
2022-08-14T10:03:34.267Z,4.60
2022-08-14T10:06:10.349Z,6.50
2022-08-14T10:08:45.385Z,5.05
2022-08-14T10:11:23.588Z,2.83
2022-08-14T10:13:55.983Z,4.43
2022-08-14T10:16:33.758Z,5.72
2022-08-14T10:19:09.644Z,5.45
2022-08-14T10:21:58.683Z,5.63
2022-08-14T10:24:36.688Z,6.47
2022-08-14T10:27:06.931Z,4.53
2022-08-14T10:29:38.531Z,5.55
2022-08-14T10:32:18.187Z,8.18
2022-08-14T10:35:06.897Z,7.95
2022-08-14T10:37:46.919Z,4.32
2022-08-14T10:40:43.495Z,10.55
2022-08-14T10:43:18.329Z,5.15
2022-08-14T10:45:59.859Z,6.75
2022-08-14T10:48:36.803Z,7.57
2022-08-14T10:51:08.485Z,8.43
2022-08-14T10:53:39.972Z,4.38
2022-08-14T10:56:22.074Z,4.25
2022-08-14T10:59:02.878Z,8.13
2022-08-14T11:01:40.823Z,3.75
2022-08-14T11:04:30.723Z,3.83
2022-08-14T11:06:59.841Z,4.22
2022-08-14T11:09:32.305Z,3.85
2022-08-14T11:12:35.078Z,4.30
2022-08-14T11:14:58.502Z,5.10
2022-08-14T11:17:32.179Z,3.97
2022-08-14T11:20:04.046Z,5.63
2022-08-14T11:23:03.081Z,3.88
2022-08-14T11:25:24.804Z,16.48
2022-08-14T11:28:11.036Z,5.07
2022-08-14T11:30:50.343Z,8.35
2022-08-14T11:33:24.526Z,4.38
2022-08-14T11:35:59.656Z,4.63
2022-08-14T11:38:29.324Z,4.40
2022-08-14T11:41:00.254Z,3.10
2022-08-14T11:43:30.702Z,3.88
2022-08-14T11:46:03.646Z,3.88
2022-08-14T11:49:03.551Z,3.00
2022-08-14T11:51:53.463Z,3.30
2022-08-14T11:54:34.395Z,4.85
2022-08-14T11:57:05.341Z,4.15
2022-08-14T11:59:34.272Z,3.67
2022-08-14T12:02:39.113Z,3.65
2022-08-14T12:05:03.967Z,5.35
2022-08-14T12:07:48.305Z,3.25
2022-08-14T12:10:26.938Z,5.07
2022-08-14T12:13:17.498Z,6.18
2022-08-14T12:15:51.462Z,4.70
2022-08-14T12:18:32.676Z,6.03
2022-08-14T12:21:15.728Z,8.50
2022-08-14T12:23:51.276Z,2.17
2022-08-14T12:26:40.150Z,3.28
2022-08-14T12:29:11.017Z,2.60
2022-08-14T12:31:44.729Z,4.60
2022-08-14T12:34:20.613Z,5.10
2022-08-14T12:37:04.233Z,5.82
2022-08-14T12:39:39.793Z,5.75
2022-08-14T12:42:11.846Z,5.10
2022-08-14T12:44:59.040Z,4.75
2022-08-14T12:47:32.555Z,8.07
2022-08-14T12:50:01.331Z,6.65
2022-08-14T12:52:45.326Z,5.03
2022-08-14T12:55:22.063Z,5.63
2022-08-14T12:57:55.299Z,3.53
2022-08-14T13:00:26.313Z,3.65
2022-08-14T13:02:56.898Z,4.93
2022-08-14T13:05:28.473Z,3.03
2022-08-14T13:07:59.266Z,7.05
2022-08-14T13:10:47.477Z,6.85
2022-08-14T13:13:22.096Z,4.78
2022-08-14T13:15:56.105Z,5.75
2022-08-14T13:18:28.026Z,6.50
2022-08-14T13:21:02.268Z,3.40
2022-08-14T13:23:36.443Z,5.95
2022-08-14T13:26:09.146Z,3.75
2022-08-14T13:29:02.031Z,2.78
2022-08-14T13:31:34.704Z,5.13
2022-08-14T13:34:04.474Z,3.80
2022-08-14T13:36:51.748Z,6.72
2022-08-14T13:39:24.640Z,7.32
2022-08-14T13:41:55.605Z,5.57
2022-08-14T13:44:28.837Z,8.45
2022-08-14T13:46:58.765Z,4.65
2022-08-14T13:49:29.163Z,5.57
2022-08-14T13:52:00.247Z,2.75
2022-08-14T13:54:32.885Z,8.40
2022-08-14T13:57:03.944Z,4.45
2022-08-14T13:59:37.372Z,5.90
2022-08-14T14:02:09.827Z,7.70
2022-08-14T14:04:42.197Z,4.57
2022-08-14T14:07:14.260Z,4.88
2022-08-14T14:09:52.998Z,3.92
2022-08-14T14:12:49.179Z,5.00
2022-08-14T14:15:17.721Z,3.15
2022-08-14T14:17:47.805Z,4.53
2022-08-14T14:20:34.581Z,6.10
2022-08-14T14:23:11.864Z,4.85
2022-08-14T14:25:48.458Z,4.00
2022-08-14T14:28:23.889Z,4.53
2022-08-14T14:30:57.271Z,5.72
2022-08-14T14:33:49.556Z,6.38
2022-08-14T14:36:21.876Z,2.33
2022-08-14T14:38:53.555Z,5.38
2022-08-14T14:41:23.751Z,5.22
2022-08-14T14:43:57.880Z,4.57
2022-08-14T14:46:36.755Z,4.25
2022-08-14T14:49:08.946Z,5.72
2022-08-14T14:51:43.430Z,5.18
2022-08-14T14:54:13.310Z,6.95
2022-08-14T14:56:52.256Z,3.47
2022-08-14T14:59:25.405Z,6.38
2022-08-14T15:02:00.689Z,5.80
2022-08-14T15:04:29.342Z,4.30
2022-08-14T15:06:57.895Z,7.18
2022-08-14T15:09:27.579Z,7.22
2022-08-14T15:11:57.807Z,4.35
2022-08-14T15:14:54.781Z,4.68
2022-08-14T15:17:17.283Z,7.15
2022-08-14T15:19:56.360Z,4.95
2022-08-14T15:22:29.055Z,5.75
2022-08-14T15:24:59.047Z,7.97
2022-08-14T15:27:29.478Z,5.25
2022-08-14T15:29:59.621Z,3.20
2022-08-14T15:32:29.217Z,6.43
2022-08-14T15:34:58.297Z,5.05
2022-08-14T15:37:32.626Z,4.88
2022-08-14T15:40:02.439Z,5.28
2022-08-14T15:42:38.101Z,4.15
2022-08-14T15:45:12.864Z,5.20
2022-08-14T15:47:43.378Z,3.55
2022-08-14T15:50:13.378Z,4.15
2022-08-14T15:52:45.032Z,3.08
2022-08-14T15:55:16.152Z,4.13
2022-08-14T15:58:02.128Z,4.80
2022-08-14T16:00:53.878Z,4.90
2022-08-14T16:03:27.597Z,5.93
2022-08-14T16:06:05.840Z,6.07
2022-08-14T16:08:40.151Z,5.25
2022-08-14T16:11:10.663Z,6.10
2022-08-14T16:13:43.488Z,5.82
2022-08-14T16:16:49.391Z,4.78
2022-08-14T16:19:09.943Z,6.78
2022-08-14T16:22:01.586Z,4.75
2022-08-14T16:25:02.207Z,3.65
2022-08-14T16:27:37.179Z,3.22
2022-08-14T16:30:24.803Z,4.40
2022-08-14T16:32:57.051Z,5.00
2022-08-14T16:35:42.697Z,3.35
2022-08-14T16:38:19.728Z,8.27
2022-08-14T16:41:23.255Z,5.35
2022-08-14T16:43:59.414Z,6.10
2022-08-14T16:46:31.424Z,8.80
2022-08-14T16:49:03.214Z,5.22
2022-08-14T16:51:36.497Z,5.45
2022-08-14T16:54:21.099Z,8.07
2022-08-14T16:57:13.810Z,4.50
2022-08-14T16:59:57.280Z,5.05
2022-08-14T17:02:36.672Z,5.13
2022-08-14T17:05:22.060Z,5.93
2022-08-14T17:08:31.455Z,10.10
2022-08-14T17:11:10.558Z,4.22
2022-08-14T17:13:59.738Z,2.47
2022-08-14T17:16:35.658Z,7.15
2022-08-14T17:19:05.730Z,4.57
2022-08-14T17:21:41.915Z,4.03
2022-08-14T17:24:57.755Z,7.35
2022-08-14T17:27:03.661Z,8.45
2022-08-14T17:29:34.573Z,4.10
2022-08-14T17:32:21.872Z,4.57
2022-08-14T17:34:57.697Z,5.72
2022-08-14T17:37:37.776Z,8.23
2022-08-14T17:40:15.934Z,7.47
2022-08-14T17:42:55.705Z,4.53
2022-08-14T17:45:46.803Z,7.28
2022-08-14T17:49:10.835Z,7.28
2022-08-14T17:51:23.752Z,4.88
2022-08-14T17:54:02.323Z,9.82
2022-08-14T17:56:38.730Z,4.28
2022-08-14T17:59:08.675Z,7.00
2022-08-14T18:01:46.448Z,7.60
2022-08-14T18:04:24.467Z,3.72
2022-08-14T18:07:16.774Z,11.13
2022-08-14T18:09:57.610Z,2.97
2022-08-14T18:12:36.935Z,10.40
2022-08-14T18:15:14.459Z,5.30
2022-08-14T18:17:52.742Z,4.35
2022-08-14T18:21:40.969Z,5.85
2022-08-14T18:23:14.323Z,6.78
2022-08-14T18:25:51.618Z,6.32
2022-08-14T18:28:51.967Z,9.82
2022-08-14T18:31:43.375Z,5.43
2022-08-14T18:34:31.741Z,4.88
2022-08-14T18:37:16.567Z,6.10
2022-08-14T18:39:51.688Z,6.78
2022-08-14T18:42:47.091Z,4.95
2022-08-14T18:45:18.915Z,9.10
2022-08-14T18:48:33.228Z,8.02
2022-08-14T18:51:15.125Z,8.77
2022-08-14T18:53:57.171Z,5.05
2022-08-14T18:56:58.407Z,5.57
2022-08-14T18:59:37.536Z,7.50
2022-08-14T19:02:43.421Z,12.88
2022-08-14T19:05:14.281Z,5.93
2022-08-14T19:07:48.162Z,8.05
2022-08-14T19:10:31.837Z,9.60
2022-08-14T19:13:11.927Z,5.15
2022-08-14T19:15:44.745Z,6.40
2022-08-14T19:18:26.194Z,6.20
2022-08-14T19:20:59.166Z,3.25
2022-08-14T19:23:42.095Z,6.32
2022-08-14T19:26:36.774Z,8.73
2022-08-14T19:29:21.136Z,5.05
2022-08-14T19:31:56.253Z,6.20
2022-08-14T19:34:47.958Z,4.13
2022-08-14T19:37:52.475Z,8.38
2022-08-14T19:40:33.961Z,9.15
2022-08-14T19:43:06.662Z,11.95
2022-08-14T19:45:38.432Z,7.30
2022-08-14T19:48:15.757Z,7.40
2022-08-14T19:50:47.082Z,7.72
2022-08-14T19:53:18.468Z,12.05
2022-08-14T19:55:59.644Z,8.50
2022-08-14T19:58:54.784Z,10.07
2022-08-14T20:01:37.283Z,7.22
2022-08-14T20:04:45.017Z,12.02
2022-08-14T20:07:01.594Z,15.70
2022-08-14T20:11:04.631Z,11.48
2022-08-14T20:12:36.618Z,7.00
2022-08-14T20:15:26.912Z,10.15
2022-08-14T20:18:46.016Z,11.20
2022-08-14T20:21:05.753Z,10.65
2022-08-14T20:23:37.956Z,13.18
2022-08-14T20:26:30.738Z,9.13
2022-08-14T20:29:04.588Z,9.70
2022-08-14T20:31:38.342Z,9.32
2022-08-14T20:34:24.615Z,9.52
2022-08-14T20:37:09.802Z,6.22
2022-08-14T20:39:45.122Z,9.55
2022-08-14T20:42:43.471Z,13.50
2022-08-14T20:45:23.660Z,6.22
2022-08-14T20:47:58.610Z,11.93
2022-08-14T20:50:32.005Z,10.52
2022-08-14T20:53:05.694Z,9.90
2022-08-14T20:55:41.571Z,12.75
2022-08-14T21:01:33.105Z,13.15
2022-08-14T21:04:12.033Z,7.28
2022-08-14T21:07:22.878Z,8.20
2022-08-14T21:10:03.039Z,7.80
2022-08-14T21:12:33.537Z,11.52
2022-08-14T21:15:03.974Z,11.50
2022-08-14T21:17:37.492Z,11.30
2022-08-14T21:20:25.626Z,11.32
2022-08-14T21:23:00.346Z,9.45
2022-08-14T21:25:31.848Z,10.25
2022-08-14T21:28:04.239Z,8.60
2022-08-14T21:30:51.537Z,13.65
2022-08-14T21:33:23.921Z,11.20
2022-08-14T21:35:55.038Z,11.73
2022-08-14T21:38:34.251Z,16.52
2022-08-14T21:41:43.066Z,22.48
2022-08-14T21:44:17.401Z,20.05
2022-08-14T21:46:49.791Z,27.80
2022-08-14T21:49:23.589Z,35.03
2022-08-14T21:51:58.831Z,24.77
2022-08-14T21:54:50.169Z,18.83
2022-08-14T21:57:55.883Z,20.63
2022-08-14T22:00:35.346Z,17.52
2022-08-14T22:03:04.527Z,24.27
2022-08-14T22:05:34.851Z,27.45
2022-08-14T22:08:07.522Z,27.95
2022-08-14T22:10:43.002Z,30.02
2022-08-14T22:13:17.289Z,31.50
2022-08-14T22:15:50.067Z,26.17
2022-08-14T22:18:21.007Z,30.52
2022-08-14T22:20:56.474Z,30.30
2022-08-14T22:23:27.172Z,28.13
2022-08-14T22:25:56.757Z,35.28
2022-08-14T22:28:32.484Z,27.98
2022-08-14T22:31:03.793Z,24.92
2022-08-14T22:33:40.363Z,29.02
2022-08-14T22:36:34.179Z,25.40
2022-08-14T22:39:10.965Z,30.75
2022-08-14T22:41:42.741Z,31.77
2022-08-14T22:44:15.201Z,32.88
2022-08-14T22:46:45.228Z,22.92
2022-08-14T22:49:15.467Z,23.45
2022-08-14T22:52:32.895Z,21.85
2022-08-14T22:54:58.737Z,23.63
2022-08-14T22:57:37.801Z,16.58
2022-08-14T23:00:16.578Z,20.95
2022-08-14T23:02:46.806Z,26.42
2022-08-14T23:05:16.470Z,33.08
2022-08-14T23:09:02.232Z,24.83
2022-08-14T23:10:55.692Z,27.77
2022-08-14T23:13:25.072Z,23.45
2022-08-14T23:15:55.348Z,28.70
2022-08-14T23:18:25.383Z,21.38
2022-08-14T23:20:59.225Z,18.58
2022-08-14T23:23:29.954Z,19.00
2022-08-14T23:26:46.883Z,21.30
2022-08-14T23:28:57.157Z,23.58
2022-08-14T23:31:36.183Z,21.50
2022-08-14T23:34:07.558Z,19.55
2022-08-14T23:36:52.726Z,22.15
2022-08-14T23:39:29.563Z,23.38
2022-08-14T23:42:04.563Z,21.77
2022-08-14T23:44:37.083Z,18.40
2022-08-14T23:47:11.755Z,19.48
2022-08-14T23:50:00.877Z,22.20
2022-08-14T23:53:06.218Z,28.98
2022-08-14T23:55:29.672Z,22.33
2022-08-14T23:57:59.279Z,18.02
